Time;durP1;ratioP1;P1;durP2;ratioP2;P2;SDS_P1;SDS_P2;PMS_P1;PMS_P2;Temp;Humidity;BMP_temperature;BMP_pressure;BME280_temperature;BME280_humidity;BME280_pressure;Samples;Min_cycle;Max_cycle;Signal;HPM_P1;HPM_P2
2024/01/10 00:01:35;;;;;;;61.03;25.35;;;-6.50;99.90;;;;;;4144248;28;20050;-65
2024/01/10 00:03:36;;;;;;;62.75;26.38;;;-6.50;99.90;;;;;;4145868;28;20481;-67
2024/01/10 00:05:37;;;;;;;55.85;24.98;;;-6.50;99.90;;;;;;4145042;28;20104;-66
2024/01/10 00:07:38;;;;;;;68.13;28.20;;;-6.50;99.90;;;;;;4145098;28;20030;-66
2024/01/10 00:09:40;;;;;;;74.15;28.58;;;-6.50;99.90;;;;;;4145010;28;20033;-60
2024/01/10 00:11:41;;;;;;;69.00;27.67;;;-6.50;99.90;;;;;;4144684;28;20026;-67
2024/01/10 00:13:42;;;;;;;55.15;23.05;;;-6.60;99.90;;;;;;4145461;28;20038;-64
2024/01/10 00:15:43;;;;;;;53.80;23.23;;;-6.70;99.90;;;;;;4144646;28;20034;-65
2024/01/10 00:17:44;;;;;;;53.45;22.10;;;-6.70;99.90;;;;;;4145193;28;20033;-61
2024/01/10 00:19:45;;;;;;;49.78;22.63;;;-6.90;99.90;;;;;;4143902;28;21566;-66
2024/01/10 00:21:47;;;;;;;57.33;23.52;;;-7.00;99.90;;;;;;4144951;28;20050;-62
2024/01/10 00:23:49;;;;;;;51.17;22.08;;;-7.00;99.90;;;;;;4143827;28;20088;-65
2024/01/10 00:25:50;;;;;;;54.92;22.73;;;-7.10;99.90;;;;;;4145608;28;20092;-65
2024/01/10 00:27:51;;;;;;;46.67;20.48;;;-7.00;99.90;;;;;;4144069;28;20100;-66
2024/01/10 00:29:52;;;;;;;47.15;18.60;;;-7.10;99.90;;;;;;4145247;28;20056;-66
2024/01/10 00:31:53;;;;;;;41.97;17.70;;;-7.10;99.90;;;;;;4144155;28;20029;-64
2024/01/10 00:33:55;;;;;;;49.03;19.08;;;-7.20;99.90;;;;;;4145367;28;20030;-64
2024/01/10 00:35:56;;;;;;;47.22;19.85;;;-7.20;99.90;;;;;;4144529;28;20025;-65
2024/01/10 00:37:57;;;;;;;42.70;18.52;;;-7.20;99.90;;;;;;4144723;28;20030;-64
2024/01/10 00:39:58;;;;;;;47.40;18.58;;;-7.30;99.90;;;;;;4144425;28;20034;-65
2024/01/10 00:42:00;;;;;;;51.92;21.88;;;-7.30;99.90;;;;;;4144246;28;20458;-65
2024/01/10 00:44:01;;;;;;;52.30;21.83;;;-7.30;99.90;;;;;;4144612;28;20103;-59
2024/01/10 00:46:02;;;;;;;60.38;23.90;;;-7.30;99.90;;;;;;4143136;28;20834;-63
2024/01/10 00:48:04;;;;;;;53.08;22.70;;;-7.40;99.90;;;;;;4144543;28;20080;-65
2024/01/10 00:50:06;;;;;;;55.28;23.23;;;-7.40;99.90;;;;;;4144049;28;20068;-66
2024/01/10 00:52:07;;;;;;;57.75;22.25;;;-7.40;99.90;;;;;;4144835;28;20017;-66
2024/01/10 00:54:08;;;;;;;58.58;22.65;;;-7.50;99.90;;;;;;4143407;28;20030;-65
2024/01/10 00:56:10;;;;;;;57.42;23.98;;;-7.50;99.90;;;;;;4144820;28;20111;-66
2024/01/10 00:58:11;;;;;;;55.35;23.00;;;-7.60;99.90;;;;;;4143880;28;20367;-66
2024/01/10 01:00:12;;;;;;;52.35;23.20;;;-7.60;99.90;;;;;;4144807;28;20054;-62
2024/01/10 01:02:14;;;;;;;59.13;21.77;;;-7.60;99.90;;;;;;4143456;28;20034;-65
2024/01/10 01:04:15;;;;;;;54.95;23.70;;;-7.60;99.90;;;;;;4144726;28;20463;-65
2024/01/10 01:06:16;;;;;;;54.35;21.67;;;-7.60;99.90;;;;;;4144317;28;20084;-63
2024/01/10 01:08:18;;;;;;;52.65;21.70;;;-7.60;99.90;;;;;;4144514;28;20037;-66
2024/01/10 01:10:19;;;;;;;61.83;25.25;;;-7.60;99.90;;;;;;4144172;28;20042;-64
2024/01/10 01:12:21;;;;;;;49.05;23.23;;;-7.60;99.90;;;;;;4143814;28;20428;-62
2024/01/10 01:14:22;;;;;;;54.17;22.83;;;-7.60;99.90;;;;;;4144191;28;20068;-63
2024/01/10 01:16:23;;;;;;;48.00;22.30;;;-7.60;99.90;;;;;;4143948;28;20146;-66
2024/01/10 01:18:24;;;;;;;46.60;20.80;;;-7.60;99.90;;;;;;4144547;28;20034;-64
2024/01/10 01:20:25;;;;;;;51.08;22.90;;;-7.60;99.90;;;;;;4143626;28;20033;-65
2024/01/10 01:22:26;;;;;;;48.50;20.55;;;-7.60;99.90;;;;;;4144227;28;20076;-62
2024/01/10 01:24:28;;;;;;;42.25;19.85;;;-7.60;99.90;;;;;;4143689;28;20387;-64
2024/01/10 01:26:29;;;;;;;46.85;19.20;;;-7.60;99.90;;;;;;4144750;28;20379;-65
2024/01/10 01:28:30;;;;;;;46.33;19.00;;;-7.60;99.90;;;;;;4143607;28;20050;-60
2024/01/10 01:30:31;;;;;;;45.97;19.15;;;-7.60;99.90;;;;;;4144276;28;20494;-66
2024/01/10 01:32:32;;;;;;;46.25;20.05;;;-7.50;99.90;;;;;;4143288;28;20096;-65
2024/01/10 01:34:34;;;;;;;47.30;19.67;;;-7.50;99.90;;;;;;4144711;28;20030;-65
2024/01/10 01:36:35;;;;;;;54.13;21.67;;;-7.40;99.90;;;;;;4143780;28;20034;-64
2024/01/10 01:38:36;;;;;;;47.55;19.60;;;-7.50;99.90;;;;;;4144213;28;20104;-66
2024/01/10 01:40:37;;;;;;;46.67;18.95;;;-7.40;99.90;;;;;;4143785;28;20112;-63
2024/01/10 01:42:38;;;;;;;44.40;19.25;;;-7.40;99.90;;;;;;4143771;28;20026;-67
2024/01/10 01:44:39;;;;;;;52.83;19.77;;;-7.30;99.90;;;;;;4143907;28;20038;-63
2024/01/10 01:46:41;;;;;;;42.78;19.42;;;-7.30;99.90;;;;;;4143697;28;20100;-64
2024/01/10 01:48:43;;;;;;;44.67;20.88;;;-7.30;99.90;;;;;;4144386;28;20050;-65
2024/01/10 01:50:45;;;;;;;47.85;20.23;;;-7.30;99.90;;;;;;4143467;28;20482;-66
2024/01/10 01:52:47;;;;;;;45.13;18.25;;;-7.30;99.90;;;;;;4144421;28;20030;-65
2024/01/10 01:54:49;;;;;;;41.38;18.30;;;-7.30;99.90;;;;;;4143309;28;20030;-62
2024/01/10 01:56:50;;;;;;;45.13;18.33;;;-7.20;99.90;;;;;;4144140;28;20068;-62
2024/01/10 01:58:53;;;;;;;45.75;19.20;;;-7.30;99.90;;;;;;4143298;28;20468;-58
2024/01/10 02:00:54;;;;;;;41.17;18.80;;;-7.30;99.90;;;;;;4144172;28;20054;-57
2024/01/10 02:02:56;;;;;;;38.72;17.17;;;-7.30;99.90;;;;;;4143401;28;20038;-60
2024/01/10 02:04:58;;;;;;;37.70;17.30;;;-7.40;99.90;;;;;;4144484;28;20034;-60
2024/01/10 02:07:00;;;;;;;38.15;17.20;;;-7.40;99.90;;;;;;4144892;28;20467;-59
2024/01/10 02:09:03;;;;;;;36.92;16.75;;;-7.40;99.90;;;;;;4147277;28;20034;-60
2024/01/10 02:11:04;;;;;;;39.70;16.73;;;-7.40;99.90;;;;;;4146384;28;20493;-60
2024/01/10 02:13:08;;;;;;;41.33;16.27;;;-7.40;99.90;;;;;;4146272;28;20483;-55
2024/01/10 02:15:09;;;;;;;38.03;15.18;;;-7.40;99.90;;;;;;4146643;28;20044;-59
2024/01/10 02:17:10;;;;;;;35.13;14.68;;;-7.40;99.90;;;;;;4147155;28;20560;-60
2024/01/10 02:19:22;;;;;;;33.95;15.40;;;-7.50;99.90;;;;;;4146974;28;20096;-59
2024/01/10 02:21:23;;;;;;;36.70;16.20;;;-7.50;99.90;;;;;;4146588;28;20049;-61
2024/01/10 02:23:25;;;;;;;33.13;15.60;;;-7.50;99.90;;;;;;4147124;28;20072;-60
2024/01/10 02:25:26;;;;;;;32.22;14.10;;;-7.50;99.90;;;;;;4146708;28;20461;-61
2024/01/10 02:27:27;;;;;;;38.72;16.40;;;-7.50;99.90;;;;;;4146955;28;20038;-61
2024/01/10 02:29:29;;;;;;;35.42;16.33;;;-7.50;99.90;;;;;;4146074;28;20606;-63
2024/01/10 02:31:31;;;;;;;36.08;15.57;;;-7.50;99.90;;;;;;4147151;28;20524;-61
2024/01/10 02:33:32;;;;;;;39.72;15.45;;;-7.50;99.90;;;;;;4146711;28;20033;-60
2024/01/10 02:35:33;;;;;;;44.85;17.23;;;-7.50;99.90;;;;;;4147095;28;20026;-61
2024/01/10 02:37:34;;;;;;;34.35;16.45;;;-7.50;99.90;;;;;;4146180;28;20022;-60
2024/01/10 02:39:36;;;;;;;38.25;16.80;;;-7.50;99.90;;;;;;4147185;28;20116;-61
2024/01/10 02:41:37;;;;;;;47.58;18.65;;;-7.50;99.90;;;;;;4146143;28;20050;-57
2024/01/10 02:43:38;;;;;;;50.30;20.92;;;-7.50;99.90;;;;;;4146752;28;20030;-61
2024/01/10 02:45:39;;;;;;;52.50;20.95;;;-7.50;99.90;;;;;;4146199;28;20104;-59
2024/01/10 02:47:40;;;;;;;50.97;20.50;;;-7.60;99.90;;;;;;4146602;28;20034;-59
2024/01/10 02:49:41;;;;;;;51.80;20.40;;;-7.60;99.90;;;;;;4145355;28;20033;-58
2024/01/10 02:51:43;;;;;;;50.65;20.70;;;-7.60;99.90;;;;;;4146542;28;20549;-62
2024/01/10 02:53:44;;;;;;;50.85;21.13;;;-7.60;99.90;;;;;;4146497;28;20038;-56
2024/01/10 02:55:46;;;;;;;49.38;20.80;;;-7.60;99.90;;;;;;4146253;28;20034;-65
2024/01/10 02:57:47;;;;;;;46.13;20.85;;;-7.70;99.90;;;;;;4146740;28;20551;-60
2024/01/10 02:59:48;;;;;;;52.33;20.40;;;-7.80;99.90;;;;;;4145946;28;20548;-60
2024/01/10 03:01:49;;;;;;;43.72;20.25;;;-7.70;99.90;;;;;;4146589;28;20465;-61
2024/01/10 03:03:50;;;;;;;45.03;19.38;;;-7.80;99.90;;;;;;4146036;28;20029;-57
2024/01/10 03:05:52;;;;;;;52.72;19.27;;;-7.80;99.90;;;;;;4146693;28;20038;-60
2024/01/10 03:07:53;;;;;;;42.85;19.58;;;-7.90;99.90;;;;;;4145500;28;20084;-58
2024/01/10 03:09:54;;;;;;;42.15;16.73;;;-8.00;99.90;;;;;;4146620;28;20490;-60
2024/01/10 03:11:55;;;;;;;39.45;16.35;;;-8.00;99.90;;;;;;4145668;28;20073;-58
2024/01/10 03:14:10;;;;;;;42.22;17.10;;;-8.10;99.90;;;;;;4146348;28;20038;-60
2024/01/10 03:16:12;;;;;;;33.78;16.10;;;-8.10;99.90;;;;;;4145739;28;20038;-59
2024/01/10 03:18:13;;;;;;;38.22;16.65;;;-8.20;99.90;;;;;;4145910;28;20022;-60
2024/01/10 03:20:14;;;;;;;35.80;15.93;;;-8.10;99.90;;;;;;4145352;28;20510;-59
2024/01/10 03:22:15;;;;;;;37.70;15.90;;;-8.10;99.90;;;;;;4145390;28;20457;-59
2024/01/10 03:24:16;;;;;;;41.17;17.25;;;-8.10;99.90;;;;;;4145940;28;20034;-59
2024/01/10 03:26:18;;;;;;;32.72;16.10;;;-8.10;99.90;;;;;;4145886;28;20042;-64
2024/01/10 03:28:19;;;;;;;38.13;15.55;;;-8.10;99.90;;;;;;4146030;28;20104;-63
2024/01/10 03:30:24;;;;;;;41.13;17.60;;;-8.10;99.90;;;;;;4145363;28;20021;-61
2024/01/10 03:32:25;;;;;;;33.30;15.07;;;-8.10;99.90;;;;;;4144501;28;20499;-59
2024/01/10 03:34:26;;;;;;;34.65;15.43;;;-8.10;99.90;;;;;;4145582;28;20045;-63
2024/01/10 03:36:27;;;;;;;32.35;15.32;;;-8.10;99.90;;;;;;4145911;28;20053;-60
2024/01/10 03:38:28;;;;;;;33.55;14.38;;;-8.10;99.90;;;;;;4145290;28;20038;-60
2024/01/10 03:40:29;;;;;;;36.25;14.65;;;-8.10;99.90;;;;;;4146124;28;20084;-59
2024/01/10 03:42:31;;;;;;;32.95;14.45;;;-8.10;99.90;;;;;;4144397;28;20100;-60
2024/01/10 03:44:32;;;;;;;28.15;12.52;;;-8.10;99.90;;;;;;4145790;28;20088;-60
2024/01/10 03:46:33;;;;;;;31.98;13.23;;;-8.20;99.90;;;;;;4145152;28;20030;-60
2024/01/10 03:48:34;;;;;;;34.75;13.07;;;-8.20;99.90;;;;;;4145417;28;20034;-60
2024/01/10 03:50:36;;;;;;;30.98;11.93;;;-8.20;99.90;;;;;;4144985;28;20076;-64
2024/01/10 03:52:37;;;;;;;28.77;13.52;;;-8.10;99.90;;;;;;4145260;28;20348;-61
2024/01/10 03:54:38;;;;;;;31.27;12.23;;;-8.10;99.90;;;;;;4145272;28;20033;-60
2024/01/10 03:56:40;;;;;;;30.67;12.85;;;-8.10;99.90;;;;;;4144762;28;20073;-63
2024/01/10 03:58:41;;;;;;;24.48;12.10;;;-8.10;99.90;;;;;;4144901;28;20096;-57
2024/01/10 04:00:42;;;;;;;27.08;11.48;;;-8.10;99.90;;;;;;4144561;28;20046;-61
2024/01/10 04:02:44;;;;;;;27.80;11.85;;;-8.10;99.90;;;;;;4145179;28;20046;-59
2024/01/10 04:04:45;;;;;;;25.02;12.85;;;-8.10;99.90;;;;;;4145043;28;20440;-59
2024/01/10 04:06:46;;;;;;;28.08;12.95;;;-8.10;99.90;;;;;;4144526;28;20449;-61
2024/01/10 04:08:47;;;;;;;28.33;11.30;;;-8.00;99.90;;;;;;4144856;28;20037;-60
2024/01/10 04:10:48;;;;;;;30.23;11.32;;;-8.10;99.90;;;;;;4145546;28;20487;-62
2024/01/10 04:12:50;;;;;;;27.73;11.50;;;-8.00;99.90;;;;;;4143916;28;20096;-58
2024/01/10 04:14:51;;;;;;;25.88;11.32;;;-8.00;99.90;;;;;;4145659;28;20549;-60
2024/01/10 04:16:54;;;;;;;28.00;11.10;;;-8.00;99.90;;;;;;4144734;28;20498;-61
2024/01/10 04:18:55;;;;;;;28.38;11.45;;;-8.00;99.90;;;;;;4145471;28;20054;-61
2024/01/10 04:20:56;;;;;;;26.35;11.15;;;-8.00;99.90;;;;;;4144929;28;20100;-61
2024/01/10 04:22:57;;;;;;;30.52;10.65;;;-8.00;99.90;;;;;;4144779;28;20042;-57
2024/01/10 04:25:00;;;;;;;24.02;9.95;;;-8.00;99.90;;;;;;4144747;28;20091;-60
2024/01/10 04:27:02;;;;;;;21.48;9.38;;;-8.00;99.90;;;;;;4144542;28;20038;-64
2024/01/10 04:29:03;;;;;;;23.42;10.15;;;-7.90;99.90;;;;;;4143660;28;20135;-61
2024/01/10 04:31:04;;;;;;;22.58;10.25;;;-7.90;99.90;;;;;;4143745;28;20392;-60
2024/01/10 04:33:05;;;;;;;27.30;10.65;;;-7.90;99.90;;;;;;4143979;28;20084;-59
2024/01/10 04:35:06;;;;;;;28.00;11.30;;;-7.90;99.90;;;;;;4144503;28;20410;-65
2024/01/10 04:37:08;;;;;;;28.67;12.23;;;-7.90;99.90;;;;;;4145492;28;20064;-60
2024/01/10 04:39:09;;;;;;;27.10;11.80;;;-7.90;99.90;;;;;;4144324;28;20092;-59
2024/01/10 04:41:10;;;;;;;25.20;11.57;;;-7.90;99.90;;;;;;4145250;28;20045;-64
2024/01/10 04:43:11;;;;;;;28.60;12.52;;;-8.00;99.90;;;;;;4144028;28;20095;-60
2024/01/10 04:45:13;;;;;;;29.52;11.48;;;-8.00;99.90;;;;;;4145069;28;20391;-66
2024/01/10 04:47:14;;;;;;;26.38;11.13;;;-8.00;99.90;;;;;;4144354;28;20453;-62
2024/01/10 04:49:15;;;;;;;29.33;11.23;;;-8.00;99.90;;;;;;4144694;28;20108;-61
2024/01/10 04:51:16;;;;;;;22.90;10.00;;;-8.00;99.90;;;;;;4144372;28;20042;-61
2024/01/10 04:53:18;;;;;;;27.00;9.30;;;-7.90;99.90;;;;;;4144599;28;20100;-62
2024/01/10 04:55:19;;;;;;;22.73;10.55;;;-8.00;99.90;;;;;;4144479;28;20429;-56
2024/01/10 04:57:21;;;;;;;16.70;8.80;;;-7.90;99.90;;;;;;4143858;28;20490;-62
2024/01/10 04:59:22;;;;;;;28.77;11.18;;;-7.90;99.90;;;;;;4144599;28;20548;-58
2024/01/10 05:01:23;;;;;;;31.35;14.27;;;-7.80;99.90;;;;;;4144117;28;20050;-60
2024/01/10 05:03:24;;;;;;;37.33;13.13;;;-7.90;99.90;;;;;;4144529;28;20099;-58
2024/01/10 05:05:26;;;;;;;34.15;14.27;;;-8.00;99.90;;;;;;4144025;28;20076;-59
2024/01/10 05:07:27;;;;;;;33.30;15.45;;;-8.00;99.90;;;;;;4144743;28;20046;-66
2024/01/10 05:09:28;;;;;;;39.75;15.20;;;-8.10;99.90;;;;;;4142489;28;20042;-60
2024/01/10 05:11:30;;;;;;;34.30;14.98;;;-8.10;99.90;;;;;;4144490;28;20482;-60
2024/01/10 05:13:31;;;;;;;32.42;14.52;;;-8.20;99.90;;;;;;4143524;28;20033;-61
2024/01/10 05:15:32;;;;;;;34.55;14.30;;;-8.20;99.90;;;;;;4144382;28;20450;-61
2024/01/10 05:17:33;;;;;;;40.08;15.93;;;-8.20;99.90;;;;;;4143618;28;20118;-59
2024/01/10 05:19:34;;;;;;;41.63;15.50;;;-8.20;99.90;;;;;;4143674;28;20386;-60
2024/01/10 05:21:36;;;;;;;40.88;16.80;;;-8.20;99.90;;;;;;4142880;28;20050;-59
2024/01/10 05:23:38;;;;;;;46.10;16.55;;;-8.20;99.90;;;;;;4143988;28;20092;-61
2024/01/10 05:25:39;;;;;;;40.15;17.10;;;-8.10;99.90;;;;;;4143498;28;20536;-58
2024/01/10 05:27:43;;;;;;;40.92;16.58;;;-8.20;99.90;;;;;;4141476;28;20038;-61
2024/01/10 05:29:46;;;;;;;37.35;15.77;;;-8.20;99.90;;;;;;4142784;28;20045;-59
2024/01/10 05:31:47;;;;;;;59.95;23.25;;;-8.30;99.90;;;;;;4143689;28;20100;-60
2024/01/10 05:33:48;;;;;;;130.65;43.45;;;-8.30;99.90;;;;;;4144102;28;20099;-60
2024/01/10 05:35:49;;;;;;;121.05;40.78;;;-8.40;99.90;;;;;;4143593;28;20034;-60
2024/01/10 05:37:50;;;;;;;109.97;40.75;;;-8.50;99.90;;;;;;4143870;28;20482;-59
2024/01/10 05:39:51;;;;;;;94.80;33.47;;;-8.50;99.90;;;;;;4142317;28;20372;-63
2024/01/10 05:41:52;;;;;;;84.88;32.95;;;-8.50;99.90;;;;;;4143712;28;20544;-61
2024/01/10 05:43:55;;;;;;;86.38;30.95;;;-8.50;99.90;;;;;;4142954;28;20104;-61
2024/01/10 05:45:56;;;;;;;86.78;28.98;;;-8.50;99.90;;;;;;4142530;28;20399;-59
2024/01/10 05:47:58;;;;;;;72.63;26.05;;;-8.40;99.90;;;;;;4143488;28;20045;-61
2024/01/10 05:49:59;;;;;;;69.60;25.92;;;-8.40;99.90;;;;;;4144109;28;20037;-62
2024/01/10 05:52:01;;;;;;;66.05;24.13;;;-8.40;99.90;;;;;;4143241;28;20564;-64
2024/01/10 05:54:02;;;;;;;70.80;26.33;;;-8.40;99.90;;;;;;4143777;28;20084;-61
2024/01/10 05:56:06;;;;;;;67.15;24.38;;;-8.40;99.90;;;;;;4136461;28;20080;-62
2024/01/10 05:58:09;;;;;;;75.50;25.95;;;-8.40;99.90;;;;;;4127789;28;20038;-60
2024/01/10 06:00:11;;;;;;;75.47;28.55;;;-8.50;99.90;;;;;;4133139;28;20042;-61
2024/01/10 06:02:15;;;;;;;77.32;28.30;;;-8.50;99.90;;;;;;4141109;28;20042;-61
2024/01/10 06:04:17;;;;;;;71.80;27.40;;;-8.50;99.90;;;;;;4127700;28;20066;-61
2024/01/10 06:06:18;;;;;;;69.63;25.17;;;-8.50;99.90;;;;;;4133630;28;20092;-60
2024/01/10 06:08:20;;;;;;;57.97;24.75;;;-8.40;99.90;;;;;;4143813;28;20055;-55
2024/01/10 06:10:21;;;;;;;66.82;25.40;;;-8.40;99.90;;;;;;4142985;28;20565;-60
2024/01/10 06:12:22;;;;;;;58.53;23.42;;;-8.30;99.90;;;;;;4143585;28;20034;-60
2024/01/10 06:14:23;;;;;;;55.63;21.30;;;-8.30;99.90;;;;;;4143175;28;20038;-62
2024/01/10 06:16:25;;;;;;;54.15;18.92;;;-8.30;99.90;;;;;;4143888;28;20029;-60
2024/01/10 06:18:26;;;;;;;47.75;19.83;;;-8.30;99.90;;;;;;4141907;28;20045;-58
2024/01/10 06:20:27;;;;;;;59.50;23.40;;;-8.30;99.90;;;;;;4144105;28;20088;-61
2024/01/10 06:22:29;;;;;;;64.72;26.50;;;-8.20;99.90;;;;;;4143184;28;20104;-62
2024/01/10 06:24:30;;;;;;;79.15;28.10;;;-8.10;99.90;;;;;;4143535;28;20080;-59
2024/01/10 06:26:31;;;;;;;72.55;28.48;;;-7.90;99.90;;;;;;4142970;28;20371;-60
2024/01/10 06:28:32;;;;;;;65.07;28.13;;;-7.80;99.90;;;;;;4143297;28;20070;-62
2024/01/10 06:30:35;;;;;;;73.82;28.02;;;-7.50;99.90;;;;;;4143228;28;20344;-59
2024/01/10 06:32:36;;;;;;;70.93;28.50;;;-7.30;99.90;;;;;;4143177;28;20034;-59
2024/01/10 06:34:37;;;;;;;65.03;27.02;;;-7.10;99.90;;;;;;4141577;28;20026;-57
2024/01/10 06:36:38;;;;;;;65.03;26.73;;;-7.00;99.90;;;;;;4144415;28;20041;-63
2024/01/10 06:38:40;;;;;;;59.85;28.10;;;-6.80;99.90;;;;;;4141874;28;20034;-62
2024/01/10 06:40:41;;;;;;;62.10;26.85;;;-6.50;99.90;;;;;;4142524;28;20042;-60
2024/01/10 06:42:42;;;;;;;64.13;27.65;;;-6.20;99.90;;;;;;4143671;28;20037;-60
2024/01/10 06:44:43;;;;;;;57.15;23.77;;;-5.90;99.90;;;;;;4154906;28;20088;-66
2024/01/10 06:46:45;;;;;;;59.83;24.05;;;-5.70;99.90;;;;;;4143423;28;20042;-61
2024/01/10 06:48:46;;;;;;;58.63;24.17;;;-5.60;99.90;;;;;;4142749;28;20029;-60
2024/01/10 06:50:47;;;;;;;53.63;23.17;;;-5.70;99.90;;;;;;4146914;28;20080;-58
2024/01/10 06:52:48;;;;;;;49.97;22.57;;;-5.70;99.90;;;;;;4159076;28;20041;-60
2024/01/10 06:54:50;;;;;;;52.08;23.30;;;-5.70;99.90;;;;;;4158513;28;20321;-60
2024/01/10 06:56:51;;;;;;;57.27;24.23;;;-5.30;99.90;;;;;;4146164;28;20478;-60
2024/01/10 06:58:54;;;;;;;63.03;27.13;;;-5.10;99.90;;;;;;4145991;28;20271;-61
2024/01/10 07:00:55;;;;;;;63.53;25.20;;;-5.00;99.90;;;;;;4145466;28;20312;-59
2024/01/10 07:02:56;;;;;;;59.97;25.93;;;-5.10;99.90;;;;;;4145918;28;20365;-64
2024/01/10 07:04:58;;;;;;;53.97;25.63;;;-5.10;99.90;;;;;;4146210;28;20337;-62
2024/01/10 07:06:59;;;;;;;54.90;24.90;;;-5.00;99.90;;;;;;4145709;28;20275;-61
2024/01/10 07:09:00;;;;;;;61.57;28.60;;;-4.80;99.90;;;;;;4146371;28;20279;-61
2024/01/10 07:11:01;;;;;;;71.90;28.20;;;-4.60;99.90;;;;;;4145529;28;20865;-60
2024/01/10 07:13:04;;;;;;;67.60;29.10;;;-4.40;99.90;;;;;;4146437;28;20275;-61
2024/01/10 07:15:05;;;;;;;62.97;28.60;;;-4.10;99.90;;;;;;4145078;28;20675;-61
2024/01/10 07:17:07;;;;;;;63.23;28.70;;;-3.80;99.90;;;;;;4145835;28;20694;-62
2024/01/10 07:19:15;;;;;;;62.63;27.97;;;-3.20;99.90;;;;;;4144004;28;20330;-61
2024/01/10 07:21:16;;;;;;;52.00;24.07;;;-2.60;99.90;;;;;;4145522;28;20267;-60
2024/01/10 07:23:17;;;;;;;51.07;23.37;;;-2.30;99.90;;;;;;4144982;28;20641;-60
2024/01/10 07:25:18;;;;;;;51.63;23.83;;;-2.00;99.90;;;;;;4145477;28;20675;-61
2024/01/10 07:27:20;;;;;;;53.23;23.80;;;-1.90;99.90;;;;;;4145423;28;20268;-61
2024/01/10 07:29:21;;;;;;;59.30;28.70;;;-1.80;99.90;;;;;;4145417;28;20667;-61
2024/01/10 07:31:23;;;;;;;51.17;21.97;;;-1.90;99.90;;;;;;4145290;28;20271;-61
2024/01/10 07:33:24;;;;;;;50.90;22.77;;;-2.00;99.90;;;;;;4145447;28;20341;-62
2024/01/10 07:35:25;;;;;;;40.00;20.10;;;-2.10;99.90;;;;;;4145546;28;20703;-60
2024/01/10 07:37:26;;;;;;;44.30;19.13;;;-2.00;99.90;;;;;;4145344;28;20735;-62
2024/01/10 07:39:28;;;;;;;39.90;20.53;;;-2.00;99.90;;;;;;4145238;28;20263;-62
2024/01/10 07:41:31;;;;;;;48.73;21.30;;;-2.20;99.90;;;;;;4144404;28;20744;-61
2024/01/10 07:43:32;;;;;;;45.57;23.37;;;-2.10;99.90;;;;;;4145785;28;20704;-62
2024/01/10 07:45:33;;;;;;;48.27;23.40;;;-2.20;99.90;;;;;;4144920;28;20310;-62
2024/01/10 07:47:38;;;;;;;51.43;23.37;;;-2.20;99.90;;;;;;4144741;28;20674;-61
2024/01/10 07:49:39;;;;;;;48.57;23.13;;;-2.20;99.90;;;;;;4144333;28;20329;-60
2024/01/10 07:51:40;;;;;;;45.43;23.33;;;-2.10;99.90;;;;;;4144980;28;20279;-63
2024/01/10 07:53:42;;;;;;;46.20;22.43;;;-2.00;99.90;;;;;;4145051;28;20276;-63
2024/01/10 07:55:43;;;;;;;45.40;22.50;;;-1.90;99.90;;;;;;4145791;28;20345;-62
2024/01/10 07:57:44;;;;;;;50.63;23.33;;;-2.00;99.90;;;;;;4144898;28;20276;-60
2024/01/10 07:59:45;;;;;;;48.90;23.87;;;-1.90;99.90;;;;;;4145355;28;20687;-60
2024/01/10 08:01:56;;;;;;;46.67;22.53;;;-1.80;99.90;;;;;;4143878;28;20268;-60
2024/01/10 08:03:57;;;;;;;55.33;23.42;;;-1.40;99.90;;;;;;4144615;28;20275;-61
2024/01/10 08:05:59;;;;;;;55.20;23.23;;;-1.20;99.90;;;;;;4145045;28;20037;-61
2024/01/10 08:08:00;;;;;;;50.50;23.00;;;-1.00;99.90;;;;;;4144975;28;20279;-62
2024/01/10 08:10:01;;;;;;;45.47;22.70;;;-1.00;99.90;;;;;;4144952;28;20691;-63
2024/01/10 08:12:03;;;;;;;49.13;22.60;;;-0.80;99.90;;;;;;4144589;28;20334;-61
2024/01/10 08:14:05;;;;;;;46.53;22.77;;;-0.60;99.90;;;;;;4145258;28;20385;-61
2024/01/10 08:16:08;;;;;;;42.97;20.50;;;-0.50;99.90;;;;;;4144791;28;20275;-61
2024/01/10 08:18:09;;;;;;;43.10;20.97;;;-0.40;99.90;;;;;;4144805;28;21041;-61
2024/01/10 08:20:11;;;;;;;35.13;17.67;;;-0.40;99.90;;;;;;4144167;28;20301;-60
2024/01/10 08:22:13;;;;;;;38.93;17.57;;;-0.30;99.90;;;;;;4144550;28;20291;-60
2024/01/10 08:24:14;;;;;;;34.97;16.77;;;-0.30;99.90;;;;;;4144212;28;20772;-61
2024/01/10 08:26:16;;;;;;;31.40;15.53;;;-0.20;99.90;;;;;;4144844;28;20278;-60
2024/01/10 08:28:17;;;;;;;33.50;16.37;;;-0.20;99.90;;;;;;4143663;28;20299;-60
2024/01/10 08:30:18;;;;;;;35.43;16.07;;;0.00;99.90;;;;;;4144768;28;20291;-62
2024/01/10 08:32:21;;;;;;;41.93;18.83;;;0.10;99.90;;;;;;4144101;28;20825;-60
2024/01/10 08:34:23;;;;;;;40.73;17.77;;;0.10;99.90;;;;;;4144808;28;20329;-61
2024/01/10 08:36:25;;;;;;;46.10;21.37;;;0.00;99.90;;;;;;4144273;28;20318;-61
2024/01/10 08:38:26;;;;;;;36.97;17.77;;;-0.10;99.90;;;;;;4144657;28;20670;-61
2024/01/10 08:40:27;;;;;;;54.40;20.27;;;-0.20;99.90;;;;;;4144049;28;20267;-60
2024/01/10 08:42:29;;;;;;;31.90;18.57;;;-0.50;99.90;;;;;;4144055;28;20373;-63
2024/01/10 08:44:30;;;;;;;48.57;22.20;;;-0.60;99.90;;;;;;4143827;28;20271;-60
2024/01/10 08:46:31;;;;;;;45.00;21.87;;;-0.70;99.90;;;;;;4143662;28;20651;-63
2024/01/10 08:48:33;;;;;;;54.90;21.97;;;-0.60;99.90;;;;;;4144354;28;20374;-61
2024/01/10 08:50:34;;;;;;;41.90;20.93;;;-0.50;99.90;;;;;;4144084;28;20337;-62
2024/01/10 08:52:38;;;;;;;49.57;22.37;;;-0.50;99.90;;;;;;4144265;28;20271;-64
2024/01/10 08:54:39;;;;;;;45.57;22.03;;;-0.20;99.90;;;;;;4143512;28;20781;-61
2024/01/10 08:56:41;;;;;;;42.13;19.60;;;-0.20;99.90;;;;;;4154339;28;20266;-60
2024/01/10 08:58:42;;;;;;;42.53;20.57;;;-0.10;99.90;;;;;;4160075;28;20282;-60
2024/01/10 09:00:43;;;;;;;43.83;20.73;;;-0.50;99.90;;;;;;4155332;28;20283;-61
2024/01/10 09:02:44;;;;;;;40.37;19.87;;;-0.90;99.90;;;;;;4143429;28;20361;-60
2024/01/10 09:04:45;;;;;;;41.33;19.30;;;-1.00;99.90;;;;;;4144786;28;20329;-61
2024/01/10 09:06:47;;;;;;;39.43;19.63;;;-1.10;99.90;;;;;;4145984;28;20275;-60
2024/01/10 09:08:48;;;;;;;42.20;18.43;;;-1.10;99.90;;;;;;4160356;28;20278;-60
2024/01/10 09:10:49;;;;;;;44.87;17.67;;;-1.30;99.90;;;;;;4155926;28;20334;-60
2024/01/10 09:12:50;;;;;;;48.43;18.80;;;-1.30;99.90;;;;;;4144062;28;20279;-60
2024/01/10 09:14:52;;;;;;;40.50;18.07;;;-1.30;99.90;;;;;;4147125;28;20353;-61
2024/01/10 09:16:54;;;;;;;33.10;18.80;;;-1.20;99.90;;;;;;4148658;28;20325;-62
2024/01/10 09:18:57;;;;;;;45.17;19.43;;;-1.00;99.90;;;;;;4159999;28;20801;-60
2024/01/10 09:20:58;;;;;;;40.70;18.27;;;-1.10;99.90;;;;;;4133647;28;20330;-64
2024/01/10 09:23:02;;;;;;;37.53;18.00;;;-1.30;99.90;;;;;;4149302;28;20398;-60
2024/01/10 09:25:08;;;;;;;35.50;16.37;;;-1.50;99.90;;;;;;4151388;28;20262;-60
2024/01/10 09:27:09;;;;;;;30.87;15.67;;;-1.80;99.90;;;;;;4152317;28;20311;-61
2024/01/10 09:29:10;;;;;;;33.17;15.70;;;-1.80;99.90;;;;;;4145897;28;20276;-61
2024/01/10 09:31:12;;;;;;;31.27;16.57;;;-1.90;99.90;;;;;;4146602;28;20302;-62
2024/01/10 09:33:13;;;;;;;33.97;15.07;;;-2.10;99.90;;;;;;4143080;28;20347;-61
2024/01/10 09:35:14;;;;;;;33.90;15.73;;;-2.30;99.90;;;;;;4147183;28;20272;-60
2024/01/10 09:37:15;;;;;;;26.80;14.37;;;-2.20;99.90;;;;;;4147915;28;20271;-61
2024/01/10 09:39:16;;;;;;;28.83;14.00;;;-2.30;99.90;;;;;;4144081;28;20275;-61
2024/01/10 09:41:18;;;;;;;29.13;14.90;;;-2.40;99.90;;;;;;4142975;28;20287;-58
2024/01/10 09:43:21;;;;;;;35.70;14.90;;;-2.50;99.90;;;;;;4143517;28;20287;-62
2024/01/10 09:45:24;;;;;;;31.23;15.10;;;-2.50;99.90;;;;;;4142979;28;20279;-60
2024/01/10 09:47:26;;;;;;;35.47;15.17;;;-2.60;99.90;;;;;;4143413;28;20283;-59
2024/01/10 09:49:27;;;;;;;28.33;13.83;;;-2.60;99.90;;;;;;4143567;28;20838;-61
2024/01/10 09:51:29;;;;;;;32.63;14.13;;;-2.60;99.90;;;;;;4143024;28;20809;-63
2024/01/10 09:53:33;;;;;;;29.03;13.87;;;-2.60;99.90;;;;;;4143880;28;20699;-61
2024/01/10 09:55:36;;;;;;;30.87;13.40;;;-2.60;99.90;;;;;;4143450;28;20252;-61
2024/01/10 09:57:39;;;;;;;26.47;12.60;;;-2.70;99.90;;;;;;4143476;28;20271;-61
2024/01/10 09:59:43;;;;;;;24.20;12.00;;;-2.60;99.90;;;;;;4142614;28;20252;-61
2024/01/10 10:01:44;;;;;;;27.47;12.30;;;-2.50;99.90;;;;;;4144101;28;20333;-57
2024/01/10 10:03:48;;;;;;;22.93;12.23;;;-2.60;99.90;;;;;;4143025;28;20319;-63
2024/01/10 10:05:50;;;;;;;32.23;13.23;;;-2.50;99.90;;;;;;4144093;28;20264;-61
2024/01/10 10:07:55;;;;;;;23.10;12.03;;;-2.40;99.90;;;;;;4130314;28;20339;-60
2024/01/10 10:09:56;;;;;;;26.03;11.63;;;-2.30;99.90;;;;;;4143866;28;20362;-67
2024/01/10 10:11:57;;;;;;;26.13;13.30;;;-2.30;99.90;;;;;;4143274;28;20821;-61
2024/01/10 10:14:15;;;;;;;22.87;10.57;;;-2.10;99.90;;;;;;4143171;28;20306;-58
2024/01/10 10:16:24;;;;;;;26.93;11.17;;;-2.20;99.90;;;;;;4140917;28;20810;-61
2024/01/10 10:18:25;;;;;;;22.17;11.17;;;-2.20;99.90;;;;;;4143167;28;20748;-62